Time;durP1;ratioP1;P1;durP2;ratioP2;P2;SDS_P1;SDS_P2;PMS_P1;PMS_P2;Temp;Humidity;BMP_temperature;BMP_pressure;BME280_temperature;BME280_humidity;BME280_pressure;Samples;Min_cycle;Max_cycle;Signal;HPM_P1;HPM_P2
2023/03/26 00:01:15;;;;;;;3.00;1.30;;;;;;;8.21;79.15;97845.59;7380988;19;19915;-71
2023/03/26 00:03:45;;;;;;;1.10;1.00;;;;;;;8.15;79.06;97847.03;7384020;19;19922;-71
2023/03/26 00:06:16;;;;;;;2.70;1.38;;;;;;;8.09;78.98;97834.50;7379458;19;19923;-71
2023/03/26 00:08:44;;;;;;;1.77;1.67;;;;;;;7.98;79.46;97835.56;7385986;19;19937;-71
2023/03/26 00:11:13;;;;;;;2.92;1.40;;;;;;;8.04;79.26;97840.22;7378194;19;19935;-72
2023/03/26 00:13:42;;;;;;;3.08;1.92;;;;;;;8.03;79.05;97833.28;7381751;19;19922;-72
2023/03/26 00:16:15;;;;;;;2.67;1.65;;;;;;;7.93;78.70;97837.00;7377978;19;19922;-71
2023/03/26 00:18:43;;;;;;;1.80;1.70;;;;;;;7.74;78.66;97838.81;7379202;19;19923;-71
2023/03/26 00:21:12;;;;;;;4.35;1.85;;;;;;;7.70;78.79;97837.44;7374977;19;20307;-71
2023/03/26 00:23:40;;;;;;;2.38;1.67;;;;;;;7.63;80.22;97839.03;7382585;19;19914;-71
2023/03/26 00:26:09;;;;;;;2.17;1.25;;;;;;;7.78;79.79;97840.16;7380532;19;19937;-71
2023/03/26 00:28:39;;;;;;;3.33;1.27;;;;;;;7.79;79.81;97836.53;7383600;19;19920;-71
2023/03/26 00:31:08;;;;;;;3.15;1.45;;;;;;;7.52;80.03;97850.59;7383477;19;19915;-71
2023/03/26 00:33:39;;;;;;;3.45;1.55;;;;;;;7.64;79.55;97840.69;7379064;19;19931;-71
2023/03/26 00:36:09;;;;;;;3.97;1.75;;;;;;;7.68;79.77;97844.66;7383354;19;20328;-71
2023/03/26 00:38:40;;;;;;;1.48;1.20;;;;;;;7.66;79.84;97836.09;7383134;19;20290;-72
2023/03/26 00:41:16;;;;;;;1.45;1.10;;;;;;;7.74;79.93;97836.19;7385859;19;19919;-71
2023/03/26 00:43:47;;;;;;;1.40;1.30;;;;;;;7.82;80.07;97833.63;7379600;19;19922;-74
2023/03/26 00:46:14;;;;;;;;;;;;;;;7.92;79.96;97838.78;7378542;19;19923;-71
2023/03/26 00:48:41;;;;;;;1.52;1.10;;;;;;;7.90;79.42;97833.69;7384030;19;20356;-71
2023/03/26 00:51:14;;;;;;;2.10;1.67;;;;;;;7.96;79.19;97829.59;7378178;19;19922;-71
2023/03/26 00:53:43;;;;;;;2.83;1.20;;;;;;;7.89;79.20;97829.38;7380954;19;19927;-72
2023/03/26 00:56:11;;;;;;;6.32;3.00;;;;;;;7.94;79.45;97825.47;7379228;19;20662;-71
2023/03/26 00:58:39;;;;;;;2.72;1.88;;;;;;;7.96;79.20;97826.16;7379539;19;19945;-72
2023/03/26 01:01:14;;;;;;;2.10;1.52;;;;;;;7.88;78.96;97813.75;7382664;19;19938;-71
2023/03/26 01:03:44;;;;;;;2.13;1.63;;;;;;;7.82;78.85;97809.06;7382115;19;20327;-71
2023/03/26 01:06:34;;;;;;;1.73;1.42;;;;;;;7.79;79.00;97802.28;7380662;19;19986;-71
2023/03/26 01:09:06;;;;;;;2.00;1.45;;;;;;;7.84;79.03;97805.31;7380781;19;19922;-71
2023/03/26 01:11:34;;;;;;;1.75;1.40;;;;;;;7.81;79.10;97784.53;7381228;19;19919;-71
2023/03/26 01:14:06;;;;;;;2.97;1.35;;;;;;;7.78;78.92;97787.47;7383124;19;19914;-71
2023/03/26 01:16:45;;;;;;;1.88;1.30;;;;;;;7.75;79.02;97786.97;7379816;19;19918;-71
2023/03/26 01:19:25;;;;;;;3.40;1.23;;;;;;;7.65;78.97;97781.78;7378312;19;19925;-71
2023/03/26 01:21:52;;;;;;;1.80;1.63;;;;;;;7.67;79.03;97779.84;7382351;19;19921;-71
2023/03/26 01:24:19;;;;;;;2.15;1.95;;;;;;;7.56;79.34;97785.34;7382710;19;19915;-71
2023/03/26 01:26:52;;;;;;;2.13;1.60;;;;;;;7.60;79.62;97784.88;7381235;19;19911;-71
2023/03/26 01:29:28;;;;;;;3.25;1.63;;;;;;;7.57;79.69;97772.00;7378508;19;20327;-71
2023/03/26 01:32:17;;;;;;;2.10;1.40;;;;;;;7.57;79.78;97765.91;7384078;19;19936;-72
2023/03/26 01:35:03;;;;;;;1.20;1.10;;;;;;;7.67;79.57;97753.50;7384512;19;20308;-71
2023/03/26 01:37:41;;;;;;;4.53;1.58;;;;;;;7.69;79.76;97746.28;7384097;19;19914;-72
2023/03/26 01:40:22;;;;;;;2.40;1.20;;;;;;;7.66;79.70;97747.41;7381093;19;19914;-72
2023/03/26 01:42:55;;;;;;;2.45;1.90;;;;;;;7.67;80.01;97745.59;7379705;19;19915;-72
2023/03/26 01:45:26;;;;;;;2.33;1.45;;;;;;;7.66;79.85;97739.53;7381324;19;19935;-71
2023/03/26 01:47:53;;;;;;;2.25;1.50;;;;;;;7.70;80.00;97730.31;7383927;19;19922;-72
2023/03/26 01:50:20;;;;;;;1.85;1.02;;;;;;;7.61;80.11;97738.28;7378844;19;19918;-72
2023/03/26 01:52:47;;;;;;;4.70;1.50;;;;;;;7.75;79.93;97729.88;7387283;19;19943;-72
2023/03/26 01:55:13;;;;;;;2.00;1.30;;;;;;;7.76;79.76;97728.88;7387602;19;19959;-71
2023/03/26 02:00:56;;;;;;;2.10;1.38;;;;;;;7.88;79.69;97711.84;7386836;19;20271;-72
2023/03/26 02:03:31;;;;;;;5.85;1.70;;;;;;;7.85;79.40;97713.97;7376866;19;19925;-72
2023/03/26 02:06:16;;;;;;;1.50;1.35;;;;;;;7.89;79.38;97710.84;7379267;19;19934;-72
2023/03/26 02:08:49;;;;;;;1.60;1.00;;;;;;;7.90;79.38;97704.63;7382726;19;20343;-72
2023/03/26 02:11:16;;;;;;;1.25;0.75;;;;;;;7.89;79.33;97697.69;7378033;19;19931;-72
2023/03/26 02:13:45;;;;;;;4.28;1.45;;;;;;;7.87;79.31;97699.69;7377512;19;19918;-72
2023/03/26 02:16:15;;;;;;;3.40;1.17;;;;;;;7.88;79.33;97690.78;7372024;19;19922;-72
2023/03/26 02:18:43;;;;;;;5.38;1.08;;;;;;;7.87;79.40;97678.59;7382897;19;20340;-72
2023/03/26 02:21:18;;;;;;;5.75;1.80;;;;;;;7.83;79.24;97674.63;7375258;19;19922;-72
2023/03/26 02:23:56;;;;;;;4.50;1.25;;;;;;;7.80;79.25;97661.78;7379210;19;20356;-72
2023/03/26 02:26:23;;;;;;;1.65;1.08;;;;;;;7.81;79.51;97660.78;7378532;19;19932;-72
2023/03/26 02:29:00;;;;;;;2.20;1.73;;;;;;;7.84;79.48;97657.00;7382386;19;19922;-72
2023/03/26 02:31:28;;;;;;;2.97;1.05;;;;;;;7.86;79.60;97661.13;7378092;19;19921;-72
2023/03/26 02:33:56;;;;;;;2.22;1.45;;;;;;;7.64;80.42;97656.41;7381844;19;19957;-72
2023/03/26 02:36:26;;;;;;;3.72;1.40;;;;;;;7.37;81.48;97655.56;7374842;19;20447;-72
2023/03/26 02:38:59;;;;;;;1.95;1.40;;;;;;;7.40;81.96;97650.00;7382860;19;19922;-72
2023/03/26 02:41:28;;;;;;;3.53;1.15;;;;;;;7.80;80.29;97645.97;7378448;19;20371;-71
2023/03/26 02:43:59;;;;;;;5.22;1.90;;;;;;;7.93;80.14;97639.47;7377827;19;19970;-72
2023/03/26 02:46:44;;;;;;;1.80;1.60;;;;;;;7.72;81.25;97653.00;7381100;19;19922;-72
2023/03/26 02:49:32;;;;;;;2.40;1.35;;;;;;;7.62;81.64;97655.72;7374026;19;20332;-71
2023/03/26 02:51:59;;;;;;;2.53;1.58;;;;;;;7.56;81.80;97648.47;7376173;19;19926;-71
2023/03/26 02:54:26;;;;;;;3.53;1.55;;;;;;;7.67;81.40;97645.56;7379731;19;19921;-72
2023/03/26 02:57:10;;;;;;;4.32;1.13;;;;;;;8.00;79.98;97633.38;7378576;19;20016;-71
2023/03/26 03:00:01;;;;;;;1.85;1.35;;;;;;;7.99;79.82;97629.09;7381906;19;19922;-71
2023/03/26 03:02:37;;;;;;;3.17;1.30;;;;;;;7.78;80.03;97631.31;7380928;19;19927;-71
2023/03/26 03:05:27;;;;;;;3.03;1.90;;;;;;;7.62;81.09;97629.41;7376591;19;19979;-71
2023/03/26 03:08:09;;;;;;;3.38;1.75;;;;;;;7.53;81.09;97615.38;7377392;19;19922;-71
2023/03/26 03:10:41;;;;;;;3.08;1.42;;;;;;;7.57;81.06;97621.97;7384684;19;20002;-71
2023/03/26 03:13:15;;;;;;;3.72;1.13;;;;;;;7.55;81.39;97610.75;7377303;19;19923;-71
2023/03/26 03:15:42;;;;;;;1.45;0.93;;;;;;;7.58;81.41;97605.22;7384048;19;19935;-71
2023/03/26 03:18:09;;;;;;;3.33;1.38;;;;;;;7.58;81.27;97599.94;7378454;19;20291;-71
2023/03/26 03:20:36;;;;;;;4.25;1.27;;;;;;;7.58;81.26;97599.09;7383091;19;20373;-71
2023/03/26 03:23:03;;;;;;;1.63;1.38;;;;;;;7.53;81.16;97594.31;7384590;19;19918;-72
2023/03/26 03:25:31;;;;;;;2.33;1.27;;;;;;;7.52;81.55;97597.09;7377765;19;19914;-71
2023/03/26 03:27:58;;;;;;;3.70;1.77;;;;;;;7.59;81.73;97592.88;7385570;19;19921;-71
2023/03/26 03:30:25;;;;;;;4.40;1.30;;;;;;;7.57;81.32;97581.66;7378251;19;19918;-71
2023/03/26 03:33:14;;;;;;;3.10;1.55;;;;;;;7.62;81.57;97587.28;7377613;19;19938;-72
2023/03/26 03:35:41;;;;;;;2.80;1.50;;;;;;;7.64;81.88;97580.06;7382156;19;19963;-72
2023/03/26 03:38:09;;;;;;;2.28;1.10;;;;;;;7.62;81.65;97574.13;7386948;19;20269;-71
2023/03/26 03:40:45;;;;;;;3.25;1.50;;;;;;;7.62;81.73;97563.59;7387203;19;19918;-72
2023/03/26 03:43:13;;;;;;;2.35;0.90;;;;;;;7.64;81.69;97561.63;7378919;19;20038;-72
2023/03/26 03:46:02;;;;;;;3.75;1.45;;;;;;;7.65;81.89;97561.47;7384819;19;19945;-72
2023/03/26 03:48:37;;;;;;;1.85;1.65;;;;;;;7.66;81.77;97555.22;7384326;19;19923;-72
2023/03/26 03:51:05;;;;;;;5.82;1.67;;;;;;;7.67;81.88;97546.34;7383447;19;19939;-72
2023/03/26 03:53:45;;;;;;;2.33;1.58;;;;;;;7.66;81.77;97544.72;7382513;19;19922;-71
2023/03/26 03:56:17;;;;;;;1.60;1.23;;;;;;;7.67;82.20;97540.25;7377597;19;19918;-72
2023/03/26 03:59:17;;;;;;;3.40;1.23;;;;;;;7.68;82.42;97532.19;7381920;19;20375;-72
2023/03/26 04:01:45;;;;;;;4.10;1.13;;;;;;;7.70;82.27;97532.84;7378118;19;20530;-72
2023/03/26 04:04:31;;;;;;;3.50;1.40;;;;;;;7.69;82.24;97538.31;7377148;19;20322;-72
2023/03/26 04:07:00;;;;;;;5.03;1.25;;;;;;;7.70;82.35;97535.50;7383817;19;19948;-72
2023/03/26 04:09:34;;;;;;;1.35;0.90;;;;;;;7.72;82.23;97530.09;7380933;19;20356;-73
2023/03/26 04:12:09;;;;;;;5.53;2.33;;;;;;;7.73;82.22;97529.09;7382438;19;19922;-72
2023/03/26 04:14:57;;;;;;;1.65;1.13;;;;;;;7.72;82.39;97522.19;7384850;19;19925;-72
2023/03/26 04:17:24;;;;;;;4.70;1.33;;;;;;;7.75;82.37;97526.31;7382255;19;19919;-72
2023/03/26 04:19:53;;;;;;;4.78;1.73;;;;;;;7.73;82.30;97515.91;7386375;19;19927;-72
2023/03/26 04:22:35;;;;;;;2.80;0.98;;;;;;;7.75;82.48;97510.50;7380637;19;19925;-72
2023/03/26 04:25:06;;;;;;;4.85;1.25;;;;;;;7.74;82.33;97512.31;7386359;19;19926;-72
2023/03/26 04:27:43;;;;;;;3.42;1.95;;;;;;;7.76;82.58;97507.69;7379155;19;20273;-71
2023/03/26 04:30:32;;;;;;;2.55;1.65;;;;;;;7.77;82.23;97495.38;7379811;19;19921;-71
2023/03/26 04:33:14;;;;;;;2.28;1.60;;;;;;;7.76;82.34;97483.19;7378991;19;20385;-72
2023/03/26 04:35:44;;;;;;;4.80;1.55;;;;;;;7.78;82.29;97475.97;7382880;19;19926;-71
2023/03/26 04:38:15;;;;;;;;;;;;;;;7.77;82.36;97472.50;7385826;19;20140;-71
2023/03/26 04:40:46;;;;;;;6.40;1.38;;;;;;;7.77;82.42;97467.25;7383410;19;19929;-71
2023/03/26 04:43:34;;;;;;;2.10;1.67;;;;;;;8.16;80.67;97469.28;7375508;19;20269;-72
2023/03/26 04:46:03;;;;;;;2.33;1.35;;;;;;;8.20;80.09;97462.72;7383620;19;19906;-72
2023/03/26 04:48:39;;;;;;;2.63;1.45;;;;;;;8.26;79.87;97461.22;7378229;19;19978;-71
2023/03/26 04:51:08;;;;;;;2.78;1.60;;;;;;;8.29;79.80;97445.94;7378573;19;20006;-72
2023/03/26 04:53:35;;;;;;;2.67;2.10;;;;;;;8.30;79.82;97444.13;7374649;19;19918;-71
2023/03/26 04:56:44;;;;;;;3.75;1.60;;;;;;;8.31;79.85;97436.03;7376870;19;19922;-72
2023/03/26 04:59:29;;;;;;;2.38;1.38;;;;;;;8.35;79.79;97426.81;7376282;19;20308;-72
2023/03/26 05:01:58;;;;;;;2.85;1.65;;;;;;;8.38;79.92;97423.03;7378024;19;19943;-72
2023/03/26 05:04:28;;;;;;;5.10;1.00;;;;;;;8.40;79.97;97414.97;7378737;19;20327;-72
2023/03/26 05:06:57;;;;;;;3.65;1.27;;;;;;;8.39;79.79;97410.66;7385111;19;19926;-72
2023/03/26 05:09:39;;;;;;;2.53;1.35;;;;;;;8.41;79.54;97425.38;7383000;19;20269;-72
2023/03/26 05:12:11;;;;;;;2.72;1.90;;;;;;;8.15;79.41;97433.38;7380892;19;19922;-72
2023/03/26 05:15:01;;;;;;;3.50;2.58;;;;;;;8.31;78.72;97432.56;7384427;19;20480;-72
2023/03/26 05:17:40;;;;;;;5.55;1.60;;;;;;;8.39;78.68;97439.66;7383595;19;19953;-71
2023/03/26 05:20:19;;;;;;;3.17;1.92;;;;;;;8.33;78.90;97431.41;7375582;19;19918;-71
2023/03/26 05:22:47;;;;;;;5.68;1.67;;;;;;;8.35;78.59;97429.47;7377485;19;19922;-71
2023/03/26 05:25:21;;;;;;;2.42;1.45;;;;;;;8.45;78.05;97418.78;7378875;19;20018;-72
2023/03/26 05:27:48;;;;;;;6.85;2.53;;;;;;;8.48;78.00;97421.09;7383205;19;20221;-72
2023/03/26 05:30:19;;;;;;;3.90;1.65;;;;;;;8.55;77.81;97415.97;7377032;19;19918;-72
2023/03/26 05:32:50;;;;;;;4.05;1.50;;;;;;;8.57;77.47;97416.63;7378614;19;19921;-72
2023/03/26 05:35:22;;;;;;;3.60;1.45;;;;;;;8.53;77.77;97410.03;7376385;19;20322;-72
2023/03/26 05:37:50;;;;;;;5.95;1.88;;;;;;;8.55;77.49;97400.13;7379674;19;19946;-72
2023/03/26 05:40:20;;;;;;;4.95;1.92;;;;;;;8.63;77.22;97388.75;7379194;19;19990;-72
2023/03/26 05:42:52;;;;;;;1.60;1.42;;;;;;;8.68;77.34;97378.53;7379141;19;20340;-71
2023/03/26 05:45:42;;;;;;;4.70;1.33;;;;;;;8.68;77.56;97379.34;7383954;19;20264;-71
2023/03/26 05:48:24;;;;;;;3.60;2.10;;;;;;;8.65;77.14;97371.78;7380915;19;19946;-72
2023/03/26 05:50:53;;;;;;;3.60;1.42;;;;;;;8.67;77.05;97374.25;7377073;19;19914;-71
2023/03/26 05:53:22;;;;;;;4.13;1.10;;;;;;;8.68;76.56;97366.16;7373749;19;20289;-71
2023/03/26 05:56:12;;;;;;;4.45;2.25;;;;;;;8.66;76.25;97362.91;7380301;19;19917;-71
2023/03/26 05:58:57;;;;;;;3.72;1.67;;;;;;;8.39;75.86;97360.59;7385450;19;19934;-71
2023/03/26 06:01:43;;;;;;;2.80;1.35;;;;;;;8.20;77.53;97367.84;7380203;19;19922;-71
2023/03/26 06:04:45;;;;;;;3.78;1.52;;;;;;;8.21;77.75;97351.03;7379174;19;20004;-72
2023/03/26 06:07:27;;;;;;;4.28;1.85;;;;;;;8.15;78.20;97343.81;7372675;19;19922;-71
2023/03/26 06:10:08;;;;;;;4.07;1.27;;;;;;;8.06;78.45;97352.72;7379063;19;20244;-71
2023/03/26 06:12:35;;;;;;;2.50;1.27;;;;;;;8.00;78.43;97353.38;7370991;19;20271;-71
2023/03/26 06:15:04;;;;;;;5.25;2.15;;;;;;;7.98;78.10;97352.69;7377448;19;19923;-71
2023/03/26 06:17:41;;;;;;;1.75;1.00;;;;;;;8.40;77.72;97338.53;7376178;19;19941;-71
2023/03/26 06:20:27;;;;;;;4.72;1.75;;;;;;;8.60;77.05;97333.72;7376405;19;19925;-71
2023/03/26 06:22:54;;;;;;;3.30;1.63;;;;;;;8.59;76.70;97319.75;7376233;19;19926;-71
2023/03/26 06:25:40;;;;;;;2.13;1.63;;;;;;;8.54;76.62;97311.50;7373032;19;19914;-72
2023/03/26 06:28:25;;;;;;;2.00;1.80;;;;;;;8.57;76.38;97298.81;7380081;19;19935;-71
2023/03/26 06:31:04;;;;;;;2.20;1.42;;;;;;;8.64;76.62;97288.41;7378846;19;19927;-71
2023/03/26 06:33:52;;;;;;;3.20;1.95;;;;;;;8.67;77.18;97279.34;7374799;19;19914;-72
2023/03/26 06:36:18;;;;;;;2.42;1.73;;;;;;;8.65;76.84;97276.88;7374340;19;19919;-71
2023/03/26 06:38:48;;;;;;;2.40;1.45;;;;;;;8.71;76.41;97273.53;7379174;19;19954;-72
2023/03/26 06:41:15;;;;;;;2.05;1.35;;;;;;;8.78;76.16;97268.41;7377291;19;20034;-71
2023/03/26 06:43:55;;;;;;;2.70;1.52;;;;;;;8.75;74.96;97274.03;7381815;19;20322;-71
2023/03/26 06:46:40;;;;;;;2.40;1.17;;;;;;;8.79;75.57;97267.41;7379930;19;19926;-71
2023/03/26 06:49:28;;;;;;;3.55;1.90;;;;;;;8.84;75.63;97269.53;7385255;19;19960;-71
2023/03/26 06:52:13;;;;;;;2.97;1.48;;;;;;;8.82;75.41;97266.25;7384409;19;20272;-72
2023/03/26 06:55:09;;;;;;;2.42;1.30;;;;;;;8.79;74.89;97264.78;7384673;19;19914;-71
2023/03/26 06:57:56;;;;;;;4.97;1.77;;;;;;;8.75;75.55;97259.03;7386491;19;19911;-71
2023/03/26 07:00:41;;;;;;;4.30;1.77;;;;;;;8.70;75.62;97263.19;7382500;19;19922;-71
2023/03/26 07:03:27;;;;;;;3.38;1.83;;;;;;;8.68;75.34;97254.59;7378818;19;19921;-71
2023/03/26 07:06:12;;;;;;;3.10;1.45;;;;;;;8.74;75.93;97259.19;7385814;19;20410;-71
2023/03/26 07:08:58;;;;;;;4.47;2.05;;;;;;;8.79;75.20;97251.59;7390708;19;19921;-72
2023/03/26 07:11:43;;;;;;;2.28;1.25;;;;;;;8.86;75.68;97246.47;7381824;19;19917;-71
2023/03/26 07:14:30;;;;;;;3.92;1.80;;;;;;;8.78;75.62;97245.50;7384251;19;19939;-71
2023/03/26 07:17:29;;;;;;;4.82;1.77;;;;;;;8.81;75.85;97246.16;7381276;19;20020;-71
2023/03/26 07:20:11;;;;;;;3.08;1.30;;;;;;;8.82;75.65;97237.22;7385746;19;20687;-71
2023/03/26 07:22:38;;;;;;;4.72;1.58;;;;;;;8.85;75.47;97229.81;7378256;19;19914;-71
2023/03/26 07:25:06;;;;;;;4.43;1.67;;;;;;;8.88;75.21;97229.47;7386839;19;19921;-71
2023/03/26 07:28:19;;;;;;;4.45;2.38;;;;;;;8.91;75.23;97233.56;7384175;19;19918;-71
2023/03/26 07:31:23;;;;;;;3.38;1.40;;;;;;;8.93;75.62;97221.88;7385617;19;19990;-71
2023/03/26 07:34:06;;;;;;;3.03;1.90;;;;;;;8.97;75.63;97215.22;7385778;19;20305;-71
2023/03/26 07:37:02;;;;;;;2.55;1.25;;;;;;;9.06;75.77;97199.34;7378892;19;19929;-71
2023/03/26 07:39:57;;;;;;;2.88;1.92;;;;;;;9.02;76.04;97197.06;7384527;19;19974;-71
2023/03/26 07:43:05;;;;;;;3.38;1.48;;;;;;;9.01;76.41;97198.06;7377575;19;19921;-72
2023/03/26 07:46:02;;;;;;;;;;;;;;;9.01;76.12;97199.88;7384184;19;20259;-71
2023/03/26 07:48:53;;;;;;;3.20;1.02;;;;;;;8.97;76.08;97201.22;7379931;19;19928;-72
2023/03/26 07:51:34;;;;;;;3.85;1.52;;;;;;;8.92;76.32;97198.28;7378300;19;19947;-72
2023/03/26 07:54:09;;;;;;;2.97;1.42;;;;;;;8.85;76.44;97198.16;7389011;19;19915;-72
2023/03/26 07:56:49;;;;;;;2.00;1.10;;;;;;;8.84;76.73;97188.59;7378614;19;20008;-72
2023/03/26 07:59:53;;;;;;;6.18;3.28;;;;;;;8.77;77.88;97183.22;7382309;19;21481;-72
2023/03/26 08:02:48;;;;;;;4.13;1.75;;;;;;;8.54;78.25;97175.25;7381759;19;20255;-72
2023/03/26 08:06:01;;;;;;;1.58;1.20;;;;;;;8.47;78.65;97181.38;7383281;19;19925;-72
2023/03/26 08:09:04;;;;;;;10.82;2.03;;;;;;;8.42;79.02;97175.78;7387568;19;19928;-71
2023/03/26 08:12:17;;;;;;;2.28;1.30;;;;;;;8.45;79.59;97172.81;7380499;19;19920;-72
2023/03/26 08:14:58;;;;;;;6.03;1.98;;;;;;;8.50;80.14;97170.50;7381323;19;20273;-72
2023/03/26 08:17:36;;;;;;;3.22;1.40;;;;;;;8.41;80.24;97169.72;7384568;19;19982;-72
2023/03/26 08:20:15;;;;;;;3.25;1.70;;;;;;;8.34;81.13;97164.25;7386808;19;19915;-71
2023/03/26 08:22:49;;;;;;;4.63;2.90;;;;;;;8.44;81.10;97160.63;7378787;19;20719;-71
2023/03/26 08:25:18;;;;;;;3.20;1.92;;;;;;;8.49;80.80;97163.59;7384048;19;19918;-71
2023/03/26 08:28:04;;;;;;;3.50;1.65;;;;;;;8.36;81.10;97157.00;7380999;19;19914;-71
2023/03/26 08:30:31;;;;;;;5.00;1.80;;;;;;;8.33;80.97;97160.00;7384111;19;19956;-71
2023/03/26 08:33:03;;;;;;;7.15;2.17;;;;;;;8.46;81.16;97142.84;7384808;19;19952;-71
2023/03/26 08:35:32;;;;;;;3.10;2.40;;;;;;;8.54;81.48;97134.91;7382157;19;19919;-71
2023/03/26 08:37:59;;;;;;;6.75;2.33;;;;;;;8.59;81.89;97135.19;7384332;19;19926;-72
2023/03/26 08:41:07;;;;;;;5.72;3.15;;;;;;;8.67;81.28;97129.88;7385646;19;20366;-72
2023/03/26 08:44:05;;;;;;;4.50;2.47;;;;;;;8.61;81.37;97127.94;7381208;19;19952;-71
2023/03/26 08:46:59;;;;;;;5.65;2.28;;;;;;;8.63;81.92;97125.94;7378117;19;19946;-72
2023/03/26 08:50:00;;;;;;;4.65;1.60;;;;;;;8.69;81.62;97114.72;7382129;19;19915;-71
2023/03/26 08:52:33;;;;;;;4.57;2.03;;;;;;;8.60;81.78;97122.84;7381166;19;19930;-72
2023/03/26 08:55:11;;;;;;;5.10;2.08;;;;;;;8.69;81.79;97112.06;7385042;19;19926;-71
2023/03/26 08:58:07;;;;;;;6.28;2.08;;;;;;;8.71;81.94;97112.69;7380437;19;20257;-72
2023/03/26 09:01:09;;;;;;;3.72;1.48;;;;;;;8.82;82.29;97113.28;7378464;19;20281;-72
2023/03/26 09:04:05;;;;;;;5.10;1.70;;;;;;;8.90;82.33;97118.50;7379684;19;19943;-72
2023/03/26 09:06:57;;;;;;;7.57;2.35;;;;;;;9.01;82.80;97107.56;7381530;19;19918;-72
2023/03/26 09:09:57;;;;;;;2.88;1.70;;;;;;;9.11;82.21;97107.28;7388140;19;19934;-72
2023/03/26 09:12:27;;;;;;;5.07;1.65;;;;;;;9.02;82.40;97109.19;7381788;19;19944;-72
2023/03/26 09:15:21;;;;;;;5.53;1.95;;;;;;;9.16;82.45;97111.06;7387661;19;19990;-72
2023/03/26 09:18:07;;;;;;;3.38;1.50;;;;;;;9.37;82.77;97113.03;7377004;19;19935;-71
2023/03/26 09:20:47;;;;;;;2.75;1.92;;;;;;;9.54;82.18;97118.97;7381515;19;19914;-72
2023/03/26 09:23:47;;;;;;;5.43;2.38;;;;;;;9.45;81.25;97114.75;7383117;19;19918;-72
2023/03/26 09:26:17;;;;;;;;;;;;;;;9.41;81.46;97124.84;7379516;19;20309;-72
2023/03/26 09:28:50;;;;;;;5.18;1.92;;;;;;;9.40;81.74;97119.75;7376269;19;19918;-71
2023/03/26 09:31:56;;;;;;;4.68;2.08;;;;;;;9.53;81.83;97122.63;7384481;19;19915;-72
2023/03/26 09:34:58;;;;;;;3.78;1.85;;;;;;;9.64;82.50;97114.25;7380217;19;20002;-70
2023/03/26 09:37:49;;;;;;;5.18;2.30;;;;;;;9.77;82.48;97107.50;7379656;19;20372;-72
2023/03/26 09:40:35;;;;;;;8.02;2.28;;;;;;;9.88;83.21;97104.44;7381812;19;20396;-72
2023/03/26 09:43:31;;;;;;;2.45;1.80;;;;;;;10.13;83.41;97094.38;7380304;19;20237;-71
2023/03/26 09:46:03;;;;;;;;;;;;;;;10.28;83.69;97100.50;7384517;19;19926;-72
2023/03/26 09:48:46;;;;;;;5.55;1.98;;;;;;;10.37;82.73;97098.56;7383685;19;20577;-72
2023/03/26 09:51:22;;;;;;;4.22;2.80;;;;;;;10.52;82.13;97098.53;7383328;19;20339;-71
2023/03/26 09:54:05;;;;;;;3.67;1.63;;;;;;;10.71;82.26;97091.81;7378197;19;19910;-72
2023/03/26 09:56:37;;;;;;;3.08;1.67;;;;;;;10.65;81.77;97095.22;7371446;19;19922;-72
2023/03/26 09:59:42;;;;;;;3.28;1.58;;;;;;;10.88;81.04;97090.56;7372268;19;19933;-71
2023/03/26 10:02:37;;;;;;;3.25;1.67;;;;;;;10.85;80.50;97095.41;7371987;19;19918;-72
2023/03/26 10:05:19;;;;;;;2.30;1.20;;;;;;;10.67;80.54;97090.56;7383758;19;19948;-73
2023/03/26 10:08:19;;;;;;;2.67;2.35;;;;;;;10.83;79.81;97086.84;7379372;19;19926;-75
2023/03/26 10:11:04;;;;;;;3.13;0.93;;;;;;;11.02;79.43;97082.75;7376768;19;19919;-72
2023/03/26 10:20:18;;;;;;;3.50;1.63;;;;;;;11.19;76.07;97081.50;7338228;19;19925;-84
2023/03/26 10:22:54;;;;;;;2.55;1.67;;;;;;;11.41;77.27;97076.97;7356101;19;19925;-83
2023/03/26 10:25:29;;;;;;;1.88;1.15;;;;;;;11.93;75.32;97078.34;7381363;19;19918;-83
2023/03/26 10:28:12;;;;;;;1.02;0.80;;;;;;;12.13;73.89;97073.13;7382502;19;19931;-84
2023/03/26 10:31:06;;;;;;;4.80;1.48;;;;;;;12.32;72.86;97076.84;7384181;19;19919;-83
2023/03/26 10:33:48;;;;;;;6.55;2.17;;;;;;;12.27;72.91;97066.88;7380856;19;20404;-79
2023/03/26 10:36:21;;;;;;;1.20;1.10;;;;;;;11.73;71.93;97078.19;7386737;19;19919;-85
2023/03/26 10:39:08;;;;;;;2.08;0.90;;;;;;;11.75;72.35;97070.06;7394217;19;19998;-85
2023/03/26 10:41:54;;;;;;;2.13;1.20;;;;;;;11.86;72.88;97064.22;7394768;19;20027;-84
2023/03/26 10:44:59;;;;;;;1.73;0.77;;;;;;;12.51;71.15;97064.69;7418767;19;20861;-84
2023/03/26 10:47:47;;;;;;;2.67;1.25;;;;;;;12.25;68.58;97065.44;7402967;19;19939;-85
2023/03/26 11:09:11;;;;;;;2.33;0.93;;;;;;;13.24;63.72;97066.63;7373181;19;19952;-83
2023/03/26 11:11:44;;;;;;;0.93;0.50;;;;;;;13.41;61.66;97069.72;7379106;19;19940;-84
2023/03/26 11:14:19;;;;;;;1.00;0.65;;;;;;;13.55;60.25;97060.72;7389058;19;19915;-80
2023/03/26 11:17:19;;;;;;;0.98;0.68;;;;;;;14.06;56.77;97057.34;7382571;19;19919;-79
2023/03/26 11:20:16;;;;;;;2.13;0.80;;;;;;;14.88;59.27;97050.38;7387886;19;19919;-85
2023/03/26 11:23:10;;;;;;;2.67;0.60;;;;;;;15.42;57.40;97055.28;7382007;19;19918;-84
2023/03/26 11:25:46;;;;;;;1.60;0.60;;;;;;;16.26;58.32;97061.00;7380451;19;19941;-83
2023/03/26 11:28:47;;;;;;;1.23;0.50;;;;;;;16.08;53.45;97046.63;7395975;19;19939;-83
2023/03/26 11:31:56;;;;;;;1.33;0.28;;;;;;;15.83;52.12;97040.56;7398421;19;19929;-82
2023/03/26 11:34:46;;;;;;;0.70;0.43;;;;;;;14.65;50.10;97036.81;7390037;19;19923;-81
2023/03/26 11:37:26;;;;;;;1.58;0.40;;;;;;;14.08;54.87;97035.81;7388228;19;19923;-79
2023/03/26 11:39:55;;;;;;;0.77;0.35;;;;;;;14.15;54.54;97044.59;7386639;19;20347;-79
2023/03/26 11:42:23;;;;;;;1.20;0.82;;;;;;;14.46;53.12;97034.00;7383028;19;19923;-83
2023/03/26 11:44:54;;;;;;;1.48;0.60;;;;;;;14.33;52.35;97031.44;7386083;19;19947;-83
2023/03/26 11:47:28;;;;;;;1.30;0.75;;;;;;;14.10;52.06;97031.13;7393580;19;19982;-84
2023/03/26 11:49:56;;;;;;;0.93;0.35;;;;;;;13.59;52.27;97020.22;7394259;19;19983;-82
2023/03/26 11:52:25;;;;;;;1.40;0.73;;;;;;;13.14;54.30;97011.28;7388134;19;20303;-82
2023/03/26 11:54:53;;;;;;;1.92;0.82;;;;;;;12.92;54.77;97038.00;7387219;19;21012;-83
2023/03/26 11:57:21;;;;;;;1.77;0.70;;;;;;;12.14;55.41;97032.34;7398418;19;20012;-80
2023/03/26 11:59:53;;;;;;;2.45;0.73;;;;;;;12.26;57.29;97041.34;7395067;19;19933;-83
2023/03/26 12:02:28;;;;;;;2.15;0.73;;;;;;;12.19;56.39;97055.59;7390778;19;19914;-81
2023/03/26 12:05:14;;;;;;;1.70;1.55;;;;;;;11.99;58.90;97061.66;7394876;19;20429;-80
2023/03/26 12:07:45;;;;;;;1.00;0.77;;;;;;;11.76;63.09;97061.09;7395858;19;19955;-84
2023/03/26 12:10:37;;;;;;;2.28;0.82;;;;;;;11.44;65.69;97047.44;7399987;19;19970;-82
2023/03/26 12:13:20;;;;;;;1.38;0.75;;;;;;;11.24;66.74;97063.16;7400188;19;20264;-81
2023/03/26 12:15:46;;;;;;;2.08;1.05;;;;;;;11.16;66.98;97064.16;7393255;19;19915;-82
2023/03/26 12:18:23;;;;;;;1.52;0.70;;;;;;;11.06;70.21;97074.25;7393322;19;19919;-83
2023/03/26 12:21:12;;;;;;;1.23;0.65;;;;;;;10.70;73.65;97088.34;7393648;19;20874;-79
2023/03/26 12:24:00;;;;;;;1.52;0.85;;;;;;;10.27;77.04;97084.81;7388077;19;20336;-82
2023/03/26 12:26:36;;;;;;;1.08;0.63;;;;;;;10.21;77.00;97074.97;7378156;19;19926;-81
2023/03/26 12:29:11;;;;;;;1.05;0.65;;;;;;;10.57;79.55;97056.47;7390293;19;19922;-83
2023/03/26 12:31:55;;;;;;;1.13;1.02;;;;;;;11.20;76.45;97054.81;7386406;19;19931;-85
2023/03/26 12:34:36;;;;;;;1.63;0.98;;;;;;;11.83;76.89;97051.34;7395184;19;19926;-83
2023/03/26 12:37:05;;;;;;;1.50;1.08;;;;;;;12.11;75.77;97045.16;7389507;19;19926;-83
2023/03/26 12:39:41;;;;;;;2.55;0.90;;;;;;;12.50;76.37;97044.47;7382771;19;20341;-83
2023/03/26 12:42:30;;;;;;;0.70;0.47;;;;;;;12.24;70.88;97039.91;7386351;19;19996;-85
2023/03/26 12:45:23;;;;;;;1.33;0.82;;;;;;;12.71;73.20;97032.88;7387298;19;19922;-83
2023/03/26 12:47:51;;;;;;;3.03;0.85;;;;;;;12.82;68.36;97034.13;7387343;19;19938;-85
2023/03/26 12:50:35;;;;;;;1.42;1.00;;;;;;;12.52;67.02;97031.84;7396019;19;19915;-84
2023/03/26 12:53:13;;;;;;;1.40;0.70;;;;;;;12.27;67.81;97029.75;7395529;19;19922;-83
2023/03/26 12:56:00;;;;;;;3.70;1.05;;;;;;;12.06;67.66;97024.59;7388935;19;19933;-84
2023/03/26 12:58:50;;;;;;;2.65;0.85;;;;;;;12.23;68.65;97023.19;7389369;19;19919;-83
2023/03/26 13:01:51;;;;;;;2.92;1.08;;;;;;;12.10;65.98;97020.50;7394503;19;19935;-81
2023/03/26 13:04:36;;;;;;;1.90;1.23;;;;;;;12.55;68.11;97012.88;7394611;19;19929;-83
2023/03/26 13:07:32;;;;;;;2.40;1.05;;;;;;;12.88;68.16;96997.00;7398647;19;19963;-83